sensor_id;sensor_type;location;lat;lon;timestamp;pressure;altitude;pressure_sealevel;temperature;humidity
16190;BME280;41754;51.498;7.540;2023-07-29T00:00:28;99594.13;;;18.07;97.05
16190;BME280;41754;51.498;7.540;2023-07-29T00:02:56;99587.13;;;18.06;96.90
16190;BME280;41754;51.498;7.540;2023-07-29T00:05:24;99586.31;;;17.97;96.81
16190;BME280;41754;51.498;7.540;2023-07-29T00:07:51;99585.66;;;17.95;97.61
16190;BME280;41754;51.498;7.540;2023-07-29T00:10:19;99587.28;;;18.04;97.35
16190;BME280;41754;51.498;7.540;2023-07-29T00:12:49;99588.81;;;18.07;97.66
16190;BME280;41754;51.498;7.540;2023-07-29T00:15:17;99597.94;;;17.96;97.48
16190;BME280;41754;51.498;7.540;2023-07-29T00:17:45;99591.31;;;18.00;97.73
16190;BME280;41754;51.498;7.540;2023-07-29T00:20:12;99596.97;;;18.05;97.85
16190;BME280;41754;51.498;7.540;2023-07-29T00:22:40;99598.59;;;18.06;97.41
16190;BME280;41754;51.498;7.540;2023-07-29T00:25:08;99592.63;;;18.04;97.71
16190;BME280;41754;51.498;7.540;2023-07-29T00:27:36;99593.09;;;17.99;97.62
16190;BME280;41754;51.498;7.540;2023-07-29T00:30:07;99584.78;;;18.03;97.49
16190;BME280;41754;51.498;7.540;2023-07-29T00:32:36;99588.66;;;18.08;97.39
16190;BME280;41754;51.498;7.540;2023-07-29T00:35:05;99583.00;;;18.03;97.62
16190;BME280;41754;51.498;7.540;2023-07-29T00:37:33;99570.16;;;17.98;97.60
16190;BME280;41754;51.498;7.540;2023-07-29T00:40:02;99567.69;;;17.97;97.78
16190;BME280;41754;51.498;7.540;2023-07-29T00:42:30;99568.81;;;17.94;97.34
16190;BME280;41754;51.498;7.540;2023-07-29T00:44:58;99568.66;;;17.88;97.49
16190;BME280;41754;51.498;7.540;2023-07-29T00:47:27;99561.81;;;17.85;97.83
16190;BME280;41754;51.498;7.540;2023-07-29T00:49:55;99554.16;;;17.82;97.89
16190;BME280;41754;51.498;7.540;2023-07-29T00:52:23;99549.97;;;17.79;98.10
16190;BME280;41754;51.498;7.540;2023-07-29T00:54:53;99562.31;;;17.80;98.28
16190;BME280;41754;51.498;7.540;2023-07-29T00:57:21;99556.31;;;17.78;98.75
16190;BME280;41754;51.498;7.540;2023-07-29T00:59:49;99545.34;;;17.73;98.61
16190;BME280;41754;51.498;7.540;2023-07-29T01:02:17;99551.00;;;17.70;98.33
16190;BME280;41754;51.498;7.540;2023-07-29T01:04:51;99553.00;;;17.76;98.76
16190;BME280;41754;51.498;7.540;2023-07-29T01:07:23;99556.31;;;17.78;98.68
16190;BME280;41754;51.498;7.540;2023-07-29T01:09:56;99556.47;;;17.77;98.00
16190;BME280;41754;51.498;7.540;2023-07-29T01:12:35;99549.97;;;17.79;98.11
16190;BME280;41754;51.498;7.540;2023-07-29T01:15:12;99549.34;;;17.86;98.25
16190;BME280;41754;51.498;7.540;2023-07-29T01:17:47;99542.72;;;17.90;98.14
16190;BME280;41754;51.498;7.540;2023-07-29T01:20:19;99544.22;;;17.92;98.15
16190;BME280;41754;51.498;7.540;2023-07-29T01:22:48;99540.56;;;17.93;98.13
16190;BME280;41754;51.498;7.540;2023-07-29T01:25:17;99538.06;;;17.92;97.98
16190;BME280;41754;51.498;7.540;2023-07-29T01:27:47;99542.69;;;17.82;98.22
16190;BME280;41754;51.498;7.540;2023-07-29T01:30:15;99535.53;;;17.82;98.05
16190;BME280;41754;51.498;7.540;2023-07-29T01:32:48;99536.03;;;17.86;97.97
16190;BME280;41754;51.498;7.540;2023-07-29T01:35:24;99538.19;;;17.82;98.00
16190;BME280;41754;51.498;7.540;2023-07-29T01:37:56;99547.16;;;17.81;97.84
16190;BME280;41754;51.498;7.540;2023-07-29T01:40:28;99541.16;;;17.71;98.39
16190;BME280;41754;51.498;7.540;2023-07-29T01:42:56;99534.69;;;17.73;98.25
16190;BME280;41754;51.498;7.540;2023-07-29T01:45:24;99537.38;;;17.73;98.50
16190;BME280;41754;51.498;7.540;2023-07-29T01:47:52;99529.72;;;17.70;98.46
16190;BME280;41754;51.498;7.540;2023-07-29T01:50:20;99536.66;;;17.71;98.08
16190;BME280;41754;51.498;7.540;2023-07-29T01:52:48;99528.34;;;17.66;98.57
16190;BME280;41754;51.498;7.540;2023-07-29T01:55:16;99527.03;;;17.62;98.58
16190;BME280;41754;51.498;7.540;2023-07-29T01:57:45;99518.06;;;17.63;98.63
16190;BME280;41754;51.498;7.540;2023-07-29T02:00:15;99511.91;;;17.62;98.29
16190;BME280;41754;51.498;7.540;2023-07-29T02:02:44;99504.94;;;17.61;98.27
16190;BME280;41754;51.498;7.540;2023-07-29T02:05:12;99516.41;;;17.62;98.36
16190;BME280;41754;51.498;7.540;2023-07-29T02:07:40;99513.72;;;17.54;98.63
16190;BME280;41754;51.498;7.540;2023-07-29T02:10:08;99512.41;;;17.50;99.06
16190;BME280;41754;51.498;7.540;2023-07-29T02:12:36;99508.06;;;17.49;98.81
16190;BME280;41754;51.498;7.540;2023-07-29T02:15:07;99512.41;;;17.50;98.74
16190;BME280;41754;51.498;7.540;2023-07-29T02:17:36;99508.41;;;17.54;98.94
16190;BME280;41754;51.498;7.540;2023-07-29T02:20:04;99510.09;;;17.55;99.20
16190;BME280;41754;51.498;7.540;2023-07-29T02:22:33;99499.13;;;17.58;98.68
16190;BME280;41754;51.498;7.540;2023-07-29T02:25:01;99499.13;;;17.58;98.89
16190;BME280;41754;51.498;7.540;2023-07-29T02:27:29;99500.59;;;17.52;98.69
16190;BME280;41754;51.498;7.540;2023-07-29T02:29:56;99496.63;;;17.56;98.93
16190;BME280;41754;51.498;7.540;2023-07-29T02:32:26;99500.59;;;17.60;98.51
16190;BME280;41754;51.498;7.540;2023-07-29T02:34:54;99492.28;;;17.55;98.75
16190;BME280;41754;51.498;7.540;2023-07-29T02:37:22;99493.81;;;17.58;99.16
16190;BME280;41754;51.498;7.540;2023-07-29T02:39:50;99495.59;;;17.57;98.92
16190;BME280;41754;51.498;7.540;2023-07-29T02:42:17;99494.63;;;17.58;99.06
16190;BME280;41754;51.498;7.540;2023-07-29T02:44:45;99486.81;;;17.57;98.48
16190;BME280;41754;51.498;7.540;2023-07-29T02:47:13;99490.13;;;17.59;98.95
16190;BME280;41754;51.498;7.540;2023-07-29T02:49:42;99482.47;;;17.56;98.82
16190;BME280;41754;51.498;7.540;2023-07-29T02:52:10;99483.66;;;17.53;99.06
16190;BME280;41754;51.498;7.540;2023-07-29T02:54:38;99487.47;;;17.59;99.27
16190;BME280;41754;51.498;7.540;2023-07-29T02:57:06;99486.97;;;17.64;98.85
16190;BME280;41754;51.498;7.540;2023-07-29T02:59:34;99495.13;;;17.62;98.67
16190;BME280;41754;51.498;7.540;2023-07-29T03:02:02;99491.47;;;17.55;99.11
16190;BME280;41754;51.498;7.540;2023-07-29T03:04:29;99485.31;;;17.62;98.46
16190;BME280;41754;51.498;7.540;2023-07-29T03:07:01;99489.81;;;17.62;98.57
16190;BME280;41754;51.498;7.540;2023-07-29T03:09:29;99479.16;;;17.62;98.97
16190;BME280;41754;51.498;7.540;2023-07-29T03:11:57;99487.13;;;17.62;98.64
16190;BME280;41754;51.498;7.540;2023-07-29T03:14:25;99494.31;;;17.70;98.54
16190;BME280;41754;51.498;7.540;2023-07-29T03:16:54;99486.97;;;17.72;98.39
16190;BME280;41754;51.498;7.540;2023-07-29T03:19:22;99492.13;;;17.73;98.40
16190;BME280;41754;51.498;7.540;2023-07-29T03:21:50;99488.13;;;17.69;98.32
16190;BME280;41754;51.498;7.540;2023-07-29T03:24:19;99492.97;;;17.66;98.44
16190;BME280;41754;51.498;7.540;2023-07-29T03:26:47;99496.97;;;17.70;98.42
16190;BME280;41754;51.498;7.540;2023-07-29T03:29:15;99497.78;;;17.70;98.25
16190;BME280;41754;51.498;7.540;2023-07-29T03:31:42;99504.09;;;17.69;98.11
16190;BME280;41754;51.498;7.540;2023-07-29T03:34:10;99507.09;;;17.74;98.25
16190;BME280;41754;51.498;7.540;2023-07-29T03:36:41;99503.28;;;17.77;98.12
16190;BME280;41754;51.498;7.540;2023-07-29T03:39:09;99503.28;;;17.77;98.00
16190;BME280;41754;51.498;7.540;2023-07-29T03:41:39;99508.09;;;17.73;98.03
16190;BME280;41754;51.498;7.540;2023-07-29T03:44:06;99498.94;;;17.68;98.21
16190;BME280;41754;51.498;7.540;2023-07-29T03:46:34;99497.47;;;17.73;98.23
16190;BME280;41754;51.498;7.540;2023-07-29T03:49:04;99483.47;;;17.71;98.19
16190;BME280;41754;51.498;7.540;2023-07-29T03:51:32;99498.94;;;17.68;98.33
16190;BME280;41754;51.498;7.540;2023-07-29T03:54:01;99492.13;;;17.73;97.71
16190;BME280;41754;51.498;7.540;2023-07-29T03:56:29;99491.44;;;17.71;97.97
16190;BME280;41754;51.498;7.540;2023-07-29T03:59:03;99484.47;;;17.70;98.01
16190;BME280;41754;51.498;7.540;2023-07-29T04:01:32;99481.66;;;17.64;98.62
16190;BME280;41754;51.498;7.540;2023-07-29T04:04:00;99479.50;;;17.67;98.59
16190;BME280;41754;51.498;7.540;2023-07-29T04:06:28;99464.19;;;17.69;98.45
16190;BME280;41754;51.498;7.540;2023-07-29T04:08:56;99470.00;;;17.73;98.60
16190;BME280;41754;51.498;7.540;2023-07-29T04:11:24;99481.81;;;17.62;98.38
16190;BME280;41754;51.498;7.540;2023-07-29T04:13:52;99485.63;;;17.59;98.45
16190;BME280;41754;51.498;7.540;2023-07-29T04:16:21;99483.66;;;17.61;98.28
16190;BME280;41754;51.498;7.540;2023-07-29T04:18:49;99486.16;;;17.63;98.50
16190;BME280;41754;51.498;7.540;2023-07-29T04:21:17;99478.84;;;17.65;98.09
16190;BME280;41754;51.498;7.540;2023-07-29T04:23:45;99487.97;;;17.62;98.30
16190;BME280;41754;51.498;7.540;2023-07-29T04:26:13;99490.78;;;17.69;98.23
16190;BME280;41754;51.498;7.540;2023-07-29T04:28:41;99495.47;;;17.75;98.28
16190;BME280;41754;51.498;7.540;2023-07-29T04:31:09;99498.44;;;17.72;98.11
16190;BME280;41754;51.498;7.540;2023-07-29T04:33:38;99499.97;;;17.75;98.51
16190;BME280;41754;51.498;7.540;2023-07-29T04:36:06;99503.59;;;17.74;97.96
16190;BME280;41754;51.498;7.540;2023-07-29T04:38:34;99495.94;;;17.79;98.04
16190;BME280;41754;51.498;7.540;2023-07-29T04:41:02;99487.31;;;17.77;98.34
16190;BME280;41754;51.498;7.540;2023-07-29T04:43:31;99481.53;;;17.90;98.32
16190;BME280;41754;51.498;7.540;2023-07-29T04:45:59;99481.13;;;17.85;97.85
16190;BME280;41754;51.498;7.540;2023-07-29T04:48:27;99474.81;;;17.86;98.16
16190;BME280;41754;51.498;7.540;2023-07-29T04:50:56;99468.22;;;17.90;97.78
16190;BME280;41754;51.498;7.540;2023-07-29T04:53:24;99470.03;;;17.89;98.17
16190;BME280;41754;51.498;7.540;2023-07-29T04:55:52;99469.03;;;17.98;97.90
16190;BME280;41754;51.498;7.540;2023-07-29T04:58:20;99464.53;;;17.99;97.18
16190;BME280;41754;51.498;7.540;2023-07-29T05:00:48;99459.22;;;17.99;97.62
16190;BME280;41754;51.498;7.540;2023-07-29T05:03:17;99478.16;;;18.04;96.79
16190;BME280;41754;51.498;7.540;2023-07-29T05:05:45;99485.31;;;18.12;96.76
16190;BME280;41754;51.498;7.540;2023-07-29T05:08:14;99491.47;;;18.12;96.62
16190;BME280;41754;51.498;7.540;2023-07-29T05:10:42;99493.16;;;18.05;96.75
16190;BME280;41754;51.498;7.540;2023-07-29T05:13:10;99495.81;;;18.05;97.10
16190;BME280;41754;51.498;7.540;2023-07-29T05:15:38;99511.59;;;18.15;96.92
16190;BME280;41754;51.498;7.540;2023-07-29T05:18:05;99509.94;;;18.14;96.42
16190;BME280;41754;51.498;7.540;2023-07-29T05:20:33;99522.59;;;18.20;96.56
16190;BME280;41754;51.498;7.540;2023-07-29T05:23:01;99525.06;;;18.22;95.97
16190;BME280;41754;51.498;7.540;2023-07-29T05:25:30;99526.72;;;18.23;95.81
16190;BME280;41754;51.498;7.540;2023-07-29T05:27:58;99531.22;;;18.22;95.46
16190;BME280;41754;51.498;7.540;2023-07-29T05:30:26;99530.72;;;18.19;94.52
16190;BME280;41754;51.498;7.540;2023-07-29T05:32:57;99526.88;;;18.21;94.89
16190;BME280;41754;51.498;7.540;2023-07-29T05:35:26;99516.72;;;18.25;95.02
16190;BME280;41754;51.498;7.540;2023-07-29T05:37:54;99512.56;;;18.39;94.48
16190;BME280;41754;51.498;7.540;2023-07-29T05:40:21;99498.03;;;18.49;93.98
16190;BME280;41754;51.498;7.540;2023-07-29T05:42:51;99489.06;;;18.50;92.82
16190;BME280;41754;51.498;7.540;2023-07-29T05:45:18;99499.69;;;18.59;92.84
16190;BME280;41754;51.498;7.540;2023-07-29T05:47:46;99490.34;;;18.63;92.16
16190;BME280;41754;51.498;7.540;2023-07-29T05:50:14;99475.00;;;18.65;91.37
16190;BME280;41754;51.498;7.540;2023-07-29T05:52:42;99483.88;;;18.57;91.11
16190;BME280;41754;51.498;7.540;2023-07-29T05:55:10;99490.38;;;18.54;90.96
16190;BME280;41754;51.498;7.540;2023-07-29T05:57:38;99495.66;;;18.63;91.00
16190;BME280;41754;51.498;7.540;2023-07-29T06:00:12;99503.66;;;18.63;91.21
16190;BME280;41754;51.498;7.540;2023-07-29T06:02:39;99518.66;;;18.64;90.40
16190;BME280;41754;51.498;7.540;2023-07-29T06:05:12;99512.31;;;18.65;90.57
16190;BME280;41754;51.498;7.540;2023-07-29T06:07:41;99522.59;;;18.76;90.46
16190;BME280;41754;51.498;7.540;2023-07-29T06:10:12;99529.63;;;18.69;90.09
16190;BME280;41754;51.498;7.540;2023-07-29T06:12:41;99541.59;;;18.73;90.46
16190;BME280;41754;51.498;7.540;2023-07-29T06:15:10;99540.56;;;18.82;90.36
16190;BME280;41754;51.498;7.540;2023-07-29T06:17:38;99553.91;;;18.82;89.75
16190;BME280;41754;51.498;7.540;2023-07-29T06:20:08;99562.91;;;18.73;89.19
16190;BME280;41754;51.498;7.540;2023-07-29T06:22:36;99568.97;;;18.50;89.63
16190;BME280;41754;51.498;7.540;2023-07-29T06:25:04;99567.31;;;18.41;89.73
16190;BME280;41754;51.498;7.540;2023-07-29T06:27:32;99563.66;;;18.42;89.17
16190;BME280;41754;51.498;7.540;2023-07-29T06:30:00;99563.97;;;18.39;89.00
16190;BME280;41754;51.498;7.540;2023-07-29T06:32:30;99553.00;;;18.34;88.99
16190;BME280;41754;51.498;7.540;2023-07-29T06:34:57;99557.13;;;18.45;88.44
16190;BME280;41754;51.498;7.540;2023-07-29T06:37:25;99582.94;;;18.52;87.54
16190;BME280;41754;51.498;7.540;2023-07-29T06:39:53;99580.44;;;18.51;86.55
16190;BME280;41754;51.498;7.540;2023-07-29T06:42:21;99584.47;;;18.47;86.38
16190;BME280;41754;51.498;7.540;2023-07-29T06:44:49;99600.28;;;18.40;86.09
16190;BME280;41754;51.498;7.540;2023-07-29T06:47:16;99603.09;;;18.39;86.18
16190;BME280;41754;51.498;7.540;2023-07-29T06:49:46;99601.94;;;18.33;87.14
16190;BME280;41754;51.498;7.540;2023-07-29T06:52:14;99594.78;;;18.25;86.80
16190;BME280;41754;51.498;7.540;2023-07-29T06:54:42;99602.47;;;18.28;85.30
16190;BME280;41754;51.498;7.540;2023-07-29T06:57:10;99600.94;;;18.17;83.45
16190;BME280;41754;51.498;7.540;2023-07-29T06:59:38;99606.75;;;18.38;82.16
16190;BME280;41754;51.498;7.540;2023-07-29T07:02:06;99604.59;;;18.41;80.00
16190;BME280;41754;51.498;7.540;2023-07-29T07:04:34;99603.75;;;18.41;79.54
16190;BME280;41754;51.498;7.540;2023-07-29T07:07:04;99612.56;;;18.41;79.45
16190;BME280;41754;51.498;7.540;2023-07-29T07:09:32;99613.56;;;18.48;77.83
16190;BME280;41754;51.498;7.540;2023-07-29T07:12:00;99615.56;;;18.46;77.88
16190;BME280;41754;51.498;7.540;2023-07-29T07:14:27;99610.06;;;18.56;77.93
16190;BME280;41754;51.498;7.540;2023-07-29T07:16:55;99609.25;;;18.64;78.32
16190;BME280;41754;51.498;7.540;2023-07-29T07:19:23;99612.88;;;18.71;76.78
16190;BME280;41754;51.498;7.540;2023-07-29T07:21:51;99612.72;;;18.64;77.01
16190;BME280;41754;51.498;7.540;2023-07-29T07:24:20;99615.88;;;18.68;76.81
16190;BME280;41754;51.498;7.540;2023-07-29T07:26:48;99616.91;;;18.59;76.12
16190;BME280;41754;51.498;7.540;2023-07-29T07:29:16;99615.25;;;18.33;75.40
16190;BME280;41754;51.498;7.540;2023-07-29T07:31:49;99617.09;;;18.32;75.13
16190;BME280;41754;51.498;7.540;2023-07-29T07:34:18;99620.41;;;18.26;76.26
16190;BME280;41754;51.498;7.540;2023-07-29T07:36:46;99620.56;;;18.16;77.09
16190;BME280;41754;51.498;7.540;2023-07-29T07:39:14;99623.06;;;18.18;76.87
16190;BME280;41754;51.498;7.540;2023-07-29T07:41:43;99628.22;;;18.11;76.02
16190;BME280;41754;51.498;7.540;2023-07-29T07:44:10;99625.38;;;18.13;76.07
16190;BME280;41754;51.498;7.540;2023-07-29T07:46:41;99626.09;;;18.15;76.12
16190;BME280;41754;51.498;7.540;2023-07-29T07:49:09;99622.25;;;18.26;76.01
16190;BME280;41754;51.498;7.540;2023-07-29T07:51:37;99623.91;;;18.35;75.02
16190;BME280;41754;51.498;7.540;2023-07-29T07:54:05;99627.41;;;18.60;74.34
16190;BME280;41754;51.498;7.540;2023-07-29T07:56:32;99625.88;;;18.90;73.96
16190;BME280;41754;51.498;7.540;2023-07-29T07:59:02;99620.84;;;18.79;74.37
16190;BME280;41754;51.498;7.540;2023-07-29T08:01:34;99612.69;;;18.81;74.78
16190;BME280;41754;51.498;7.540;2023-07-29T08:04:02;99607.06;;;18.67;72.18
16190;BME280;41754;51.498;7.540;2023-07-29T08:06:30;99606.84;;;18.94;71.79
16190;BME280;41754;51.498;7.540;2023-07-29T08:08:58;99602.03;;;18.97;70.83
16190;BME280;41754;51.498;7.540;2023-07-29T08:11:26;99606.44;;;19.13;69.87
16190;BME280;41754;51.498;7.540;2023-07-29T08:13:53;99602.28;;;19.50;69.18
16190;BME280;41754;51.498;7.540;2023-07-29T08:16:23;99610.91;;;20.15;66.87
16190;BME280;41754;51.498;7.540;2023-07-29T08:18:50;99609.72;;;19.94;67.15
16190;BME280;41754;51.498;7.540;2023-07-29T08:21:18;99602.13;;;19.83;67.11
16190;BME280;41754;51.498;7.540;2023-07-29T08:23:46;99613.50;;;19.69;66.35
16190;BME280;41754;51.498;7.540;2023-07-29T08:26:14;99618.19;;;19.75;66.81
16190;BME280;41754;51.498;7.540;2023-07-29T08:28:43;99626.50;;;19.40;66.87
16190;BME280;41754;51.498;7.540;2023-07-29T08:31:11;99628.81;;;19.04;68.27
16190;BME280;41754;51.498;7.540;2023-07-29T08:33:40;99628.88;;;18.87;68.68
16190;BME280;41754;51.498;7.540;2023-07-29T08:36:08;99635.47;;;19.00;69.35
16190;BME280;41754;51.498;7.540;2023-07-29T08:38:36;99623.63;;;19.50;68.14
16190;BME280;41754;51.498;7.540;2023-07-29T08:41:10;99622.50;;;19.99;66.26
16190;BME280;41754;51.498;7.540;2023-07-29T08:43:45;99627.28;;;20.12;65.67
16190;BME280;41754;51.498;7.540;2023-07-29T08:46:18;99630.69;;;19.74;64.53
16190;BME280;41754;51.498;7.540;2023-07-29T08:48:49;99628.31;;;20.26;63.64
16190;BME280;41754;51.498;7.540;2023-07-29T08:51:18;99619.78;;;20.30;61.43
16190;BME280;41754;51.498;7.540;2023-07-29T08:53:47;99623.91;;;20.18;62.53
16190;BME280;41754;51.498;7.540;2023-07-29T08:56:16;99622.25;;;20.55;62.25
16190;BME280;41754;51.498;7.540;2023-07-29T08:58:44;99617.44;;;20.50;62.72
16190;BME280;41754;51.498;7.540;2023-07-29T09:01:13;99614.88;;;20.57;63.26
16190;BME280;41754;51.498;7.540;2023-07-29T09:03:42;99621.28;;;20.86;61.69
16190;BME280;41754;51.498;7.540;2023-07-29T09:06:12;99625.88;;;20.77;62.75
16190;BME280;41754;51.498;7.540;2023-07-29T09:08:41;99621.50;;;20.61;61.18
16190;BME280;41754;51.498;7.540;2023-07-29T09:11:13;99610.69;;;20.54;61.17
16190;BME280;41754;51.498;7.540;2023-07-29T09:13:42;99618.59;;;20.86;62.04
16190;BME280;41754;51.498;7.540;2023-07-29T09:16:11;99616.38;;;20.74;61.48
16190;BME280;41754;51.498;7.540;2023-07-29T09:21:06;99620.09;;;21.03;59.62
16190;BME280;41754;51.498;7.540;2023-07-29T09:23:41;99627.84;;;20.98;59.16
16190;BME280;41754;51.498;7.540;2023-07-29T09:26:09;99608.63;;;21.54;58.01
16190;BME280;41754;51.498;7.540;2023-07-29T09:28:38;99605.34;;;21.74;57.96
16190;BME280;41754;51.498;7.540;2023-07-29T09:31:07;99607.53;;;21.34;57.88
16190;BME280;41754;51.498;7.540;2023-07-29T09:33:46;99607.63;;;21.25;58.78
16190;BME280;41754;51.498;7.540;2023-07-29T09:36:14;99601.41;;;21.40;58.95
16190;BME280;41754;51.498;7.540;2023-07-29T09:38:44;99600.28;;;21.64;58.74
16190;BME280;41754;51.498;7.540;2023-07-29T09:41:13;99606.97;;;21.75;57.43
16190;BME280;41754;51.498;7.540;2023-07-29T09:43:42;99602.78;;;22.09;58.17
16190;BME280;41754;51.498;7.540;2023-07-29T09:46:10;99614.97;;;22.33;57.57
16190;BME280;41754;51.498;7.540;2023-07-29T09:48:38;99614.22;;;21.59;57.15
16190;BME280;41754;51.498;7.540;2023-07-29T09:51:11;99621.25;;;21.45;57.19
16190;BME280;41754;51.498;7.540;2023-07-29T09:53:40;99619.63;;;22.02;56.25
16190;BME280;41754;51.498;7.540;2023-07-29T09:56:14;99619.31;;;21.91;56.86
16190;BME280;41754;51.498;7.540;2023-07-29T09:58:43;99612.16;;;21.98;57.54
16190;BME280;41754;51.498;7.540;2023-07-29T10:01:12;99603.13;;;22.49;55.09
16190;BME280;41754;51.498;7.540;2023-07-29T10:03:40;99620.94;;;22.56;54.59
16190;BME280;41754;51.498;7.540;2023-07-29T10:06:09;99617.13;;;22.22;55.65
16190;BME280;41754;51.498;7.540;2023-07-29T10:08:39;99624.16;;;22.73;54.34
16190;BME280;41754;51.498;7.540;2023-07-29T10:11:08;99617.97;;;22.73;54.14
16190;BME280;41754;51.498;7.540;2023-07-29T10:13:38;99620.00;;;23.06;52.94
16190;BME280;41754;51.498;7.540;2023-07-29T10:16:06;99626.13;;;22.93;54.42
16190;BME280;41754;51.498;7.540;2023-07-29T10:18:34;99619.50;;;22.60;55.07
16190;BME280;41754;51.498;7.540;2023-07-29T10:21:02;99616.72;;;22.47;56.12
16190;BME280;41754;51.498;7.540;2023-07-29T10:23:34;99621.75;;;22.57;57.27
16190;BME280;41754;51.498;7.540;2023-07-29T10:26:06;99620.88;;;22.50;54.81
16190;BME280;41754;51.498;7.540;2023-07-29T10:28:40;99619.78;;;22.37;55.53
16190;BME280;41754;51.498;7.540;2023-07-29T10:31:08;99627.03;;;22.72;54.56
16190;BME280;41754;51.498;7.540;2023-07-29T10:33:36;99620.06;;;22.49;55.69
16190;BME280;41754;51.498;7.540;2023-07-29T10:36:05;99609.91;;;22.73;55.75
16190;BME280;41754;51.498;7.540;2023-07-29T10:38:33;99612.94;;;22.35;55.99
16190;BME280;41754;51.498;7.540;2023-07-29T10:41:01;99608.63;;;22.69;55.11
16190;BME280;41754;51.498;7.540;2023-07-29T10:43:33;99620.66;;;22.73;56.23
16190;BME280;41754;51.498;7.540;2023-07-29T10:46:16;99615.03;;;22.68;56.22
16190;BME280;41754;51.498;7.540;2023-07-29T10:48:52;99617.53;;;22.41;56.45
16190;BME280;41754;51.498;7.540;2023-07-29T10:51:24;99619.88;;;22.51;57.19
16190;BME280;41754;51.498;7.540;2023-07-29T10:53:53;99612.03;;;22.28;55.65
16190;BME280;41754;51.498;7.540;2023-07-29T10:56:27;99616.69;;;22.69;54.60
16190;BME280;41754;51.498;7.540;2023-07-29T10:59:31;99609.66;;;23.38;52.60
16190;BME280;41754;51.498;7.540;2023-07-29T11:02:12;99604.66;;;23.83;51.49
16190;BME280;41754;51.498;7.540;2023-07-29T11:04:51;99606.31;;;24.97;48.66
16190;BME280;41754;51.498;7.540;2023-07-29T11:07:24;99597.34;;;25.62;46.30
16190;BME280;41754;51.498;7.540;2023-07-29T11:09:56;99611.50;;;26.72;45.30
16190;BME280;41754;51.498;7.540;2023-07-29T11:12:40;99604.69;;;24.50;48.45
16190;BME280;41754;51.498;7.540;2023-07-29T11:15:23;99610.47;;;24.33;50.19
16190;BME280;41754;51.498;7.540;2023-07-29T11:17:54;99604.69;;;24.10;49.70
16190;BME280;41754;51.498;7.540;2023-07-29T11:20:23;99603.47;;;24.19;51.75
16190;BME280;41754;51.498;7.540;2023-07-29T11:22:53;99604.91;;;27.42;44.32
16190;BME280;41754;51.498;7.540;2023-07-29T11:25:22;99601.16;;;28.03;42.24
16190;BME280;41754;51.498;7.540;2023-07-29T11:27:51;99586.78;;;27.30;41.99
16190;BME280;41754;51.498;7.540;2023-07-29T11:30:20;99591.28;;;26.99;41.70
16190;BME280;41754;51.498;7.540;2023-07-29T11:32:49;99586.59;;;26.70;43.40
16190;BME280;41754;51.498;7.540;2023-07-29T11:35:18;99586.25;;;28.12;40.41
16190;BME280;41754;51.498;7.540;2023-07-29T11:37:48;99587.13;;;25.39;45.35
16190;BME280;41754;51.498;7.540;2023-07-29T11:40:17;99594.59;;;27.01;43.80
16190;BME280;41754;51.498;7.540;2023-07-29T11:42:46;99605.00;;;27.35;41.92
16190;BME280;41754;51.498;7.540;2023-07-29T11:45:14;99593.38;;;27.95;39.19
16190;BME280;41754;51.498;7.540;2023-07-29T11:47:44;99585.41;;;26.65;41.60
16190;BME280;41754;51.498;7.540;2023-07-29T11:50:13;99591.03;;;25.82;45.69
16190;BME280;41754;51.498;7.540;2023-07-29T11:52:44;99598.28;;;24.77;45.94
16190;BME280;41754;51.498;7.540;2023-07-29T11:55:13;99590.22;;;24.11;48.87
16190;BME280;41754;51.498;7.540;2023-07-29T11:57:43;99585.53;;;23.51;51.37
16190;BME280;41754;51.498;7.540;2023-07-29T12:00:12;99598.09;;;24.45;49.55
16190;BME280;41754;51.498;7.540;2023-07-29T12:02:44;99598.91;;;24.59;49.67
16190;BME280;41754;51.498;7.540;2023-07-29T12:05:14;99607.97;;;23.85;51.39
16190;BME280;41754;51.498;7.540;2023-07-29T12:07:44;99594.59;;;23.02;53.70
16190;BME280;41754;51.498;7.540;2023-07-29T12:10:12;99600.34;;;22.64;54.65
16190;BME280;41754;51.498;7.540;2023-07-29T12:12:44;99592.03;;;23.15;53.23
16190;BME280;41754;51.498;7.540;2023-07-29T12:15:12;99593.94;;;24.70;51.08
16190;BME280;41754;51.498;7.540;2023-07-29T12:17:40;99580.16;;;27.08;42.79
16190;BME280;41754;51.498;7.540;2023-07-29T12:20:10;99583.28;;;27.23;44.35
16190;BME280;41754;51.498;7.540;2023-07-29T12:22:38;99583.19;;;25.73;47.10
16190;BME280;41754;51.498;7.540;2023-07-29T12:25:08;99584.28;;;25.21;47.59
16190;BME280;41754;51.498;7.540;2023-07-29T12:27:36;99592.47;;;24.80;49.10
16190;BME280;41754;51.498;7.540;2023-07-29T12:30:05;99583.44;;;25.27;46.16
16190;BME280;41754;51.498;7.540;2023-07-29T12:32:43;99574.50;;;24.27;48.96
16190;BME280;41754;51.498;7.540;2023-07-29T12:35:11;99576.94;;;24.83;48.19
16190;BME280;41754;51.498;7.540;2023-07-29T12:37:39;99590.69;;;23.46;50.73
16190;BME280;41754;51.498;7.540;2023-07-29T12:40:22;99583.50;;;23.60;49.65
16190;BME280;41754;51.498;7.540;2023-07-29T12:42:50;99585.25;;;23.26;51.04
16190;BME280;41754;51.498;7.540;2023-07-29T12:45:19;99585.16;;;23.67;49.31
16190;BME280;41754;51.498;7.540;2023-07-29T12:47:49;99583.63;;;25.25;46.28
16190;BME280;41754;51.498;7.540;2023-07-29T12:50:17;99585.00;;;25.48;45.80
16190;BME280;41754;51.498;7.540;2023-07-29T12:52:45;99586.69;;;26.63;44.20
16190;BME280;41754;51.498;7.540;2023-07-29T12:55:13;99577.91;;;27.23;42.23
16190;BME280;41754;51.498;7.540;2023-07-29T12:57:42;99594.44;;;26.27;42.90
16190;BME280;41754;51.498;7.540;2023-07-29T13:00:11;99593.75;;;25.75;45.29
16190;BME280;41754;51.498;7.540;2023-07-29T13:02:39;99578.91;;;27.29;43.04
16190;BME280;41754;51.498;7.540;2023-07-29T13:05:09;99580.25;;;27.80;40.65
16190;BME280;41754;51.498;7.540;2023-07-29T13:07:38;99589.75;;;29.31;39.70
16190;BME280;41754;51.498;7.540;2023-07-29T13:10:06;99579.09;;;27.46;40.69
16190;BME280;41754;51.498;7.540;2023-07-29T13:12:34;99584.69;;;26.01;44.87